Time;durP1;ratioP1;P1;durP2;ratioP2;P2;SDS_P1;SDS_P2;PMS_P1;PMS_P2;Temp;Humidity;BMP_temperature;BMP_pressure;BME280_temperature;BME280_humidity;BME280_pressure;Samples;Min_cycle;Max_cycle;Signal;HPM_P1;HPM_P2
2022/07/27 00:02:12;;;;;;;7.25;1.73;;;;;;;20.24;80.12;101868.50;7394705;19;20014;-47
2022/07/27 00:04:46;;;;;;;4.00;2.17;;;;;;;20.22;81.26;101875.75;7397014;19;20519;-51
2022/07/27 00:07:21;;;;;;;4.55;1.98;;;;;;;20.28;79.38;101863.81;7397299;19;20025;-51
2022/07/27 00:10:01;;;;;;;5.32;2.05;;;;;;;20.31;79.75;101877.75;7394084;19;20023;-52
2022/07/27 00:12:37;;;;;;;4.53;1.70;;;;;;;20.17;79.58;101875.19;7390552;19;20439;-51
2022/07/27 00:15:12;;;;;;;5.57;1.70;;;;;;;20.02;80.61;101874.44;7395742;19;20511;-46
2022/07/27 00:17:50;;;;;;;6.72;2.20;;;;;;;19.61;83.15;101876.19;7392672;19;20023;-47
2022/07/27 00:20:22;;;;;;;6.18;2.10;;;;;;;19.68;83.59;101866.84;7396677;19;20014;-48
2022/07/27 00:22:57;;;;;;;4.60;2.13;;;;;;;19.65;84.22;101867.06;7393780;19;20440;-51
2022/07/27 00:25:37;;;;;;;7.60;2.42;;;;;;;19.81;83.22;101864.25;7393143;19;20513;-47
2022/07/27 00:28:19;;;;;;;6.38;2.70;;;;;;;19.71;83.78;101873.78;7392276;19;20029;-49
2022/07/27 00:30:51;;;;;;;6.00;2.22;;;;;;;20.07;82.47;101876.78;7395881;19;20122;-47
2022/07/27 00:33:27;;;;;;;4.25;2.10;;;;;;;19.75;83.63;101866.47;7396407;19;20011;-49
2022/07/27 00:36:04;;;;;;;6.72;2.30;;;;;;;19.88;82.34;101878.84;7392835;19;20010;-48
2022/07/27 00:38:40;;;;;;;6.68;2.53;;;;;;;19.90;81.57;101873.44;7391425;19;20416;-49
2022/07/27 00:41:15;;;;;;;6.93;2.45;;;;;;;19.86;83.01;101871.97;7394831;19;20014;-48
2022/07/27 00:44:05;;;;;;;5.70;2.65;;;;;;;20.03;81.72;101862.81;7396101;19;20015;-50
2022/07/27 00:46:37;;;;;;;8.15;2.70;;;;;;;19.83;82.52;101866.81;7395153;19;20010;-48
2022/07/27 00:49:14;;;;;;;7.07;2.42;;;;;;;19.95;82.04;101868.66;7393650;19;20007;-49
2022/07/27 00:51:49;;;;;;;3.25;2.20;;;;;;;20.02;81.25;101869.13;7395889;19;20014;-46
2022/07/27 00:54:22;;;;;;;7.65;2.67;;;;;;;20.03;81.09;101858.38;7391794;19;20014;-49
2022/07/27 00:56:59;;;;;;;;;;;;;;;20.20;80.99;101859.00;7394256;19;20014;-46
2022/07/27 00:59:34;;;;;;;8.52;3.65;;;;;;;19.77;83.12;101862.75;7393571;19;20611;-46
2022/07/27 01:02:06;;;;;;;4.38;2.30;;;;;;;19.88;82.26;101852.25;7395415;19;20010;-47
2022/07/27 01:04:47;;;;;;;5.10;2.30;;;;;;;19.63;84.88;101858.34;7391783;19;20479;-47
2022/07/27 01:07:20;;;;;;;7.60;2.38;;;;;;;19.71;84.79;101857.81;7394884;19;20018;-46
2022/07/27 01:09:59;;;;;;;6.75;2.20;;;;;;;19.95;85.10;101862.50;7393980;19;20019;-51
2022/07/27 01:12:40;;;;;;;6.70;2.27;;;;;;;19.61;84.64;101856.72;7391120;19;20010;-48
2022/07/27 01:15:20;;;;;;;11.10;2.67;;;;;;;19.70;85.73;101864.97;7394039;19;20023;-48
2022/07/27 01:17:55;;;;;;;5.13;2.00;;;;;;;19.92;84.17;101868.03;7392696;19;20022;-52
2022/07/27 01:20:32;;;;;;;6.63;2.10;;;;;;;19.59;84.42;101870.13;7389769;19;20018;-48
2022/07/27 01:23:07;;;;;;;9.55;2.47;;;;;;;19.58;85.27;101860.44;7392417;19;20017;-51
2022/07/27 01:25:46;;;;;;;5.95;2.53;;;;;;;19.61;84.48;101862.06;7393674;19;20017;-47
2022/07/27 01:28:18;;;;;;;7.45;2.20;;;;;;;19.42;86.17;101868.56;7392745;19;20025;-53
2022/07/27 01:30:55;;;;;;;5.65;2.20;;;;;;;19.52;85.42;101869.66;7394308;19;20015;-52
2022/07/27 01:33:32;;;;;;;6.15;2.17;;;;;;;19.60;85.62;101868.31;7390827;19;20030;-51
2022/07/27 01:36:07;;;;;;;7.15;2.50;;;;;;;19.42;86.47;101870.38;7392083;19;20019;-47
2022/07/27 01:38:43;;;;;;;7.55;2.50;;;;;;;19.49;86.34;101866.38;7389977;19;20083;-51
2022/07/27 01:41:17;;;;;;;9.57;2.45;;;;;;;19.33;87.87;101864.72;7394111;19;20017;-49
2022/07/27 01:43:49;;;;;;;4.40;2.08;;;;;;;19.18;89.28;101863.91;7390965;19;20095;-48
2022/07/27 01:46:24;;;;;;;7.35;2.47;;;;;;;19.24;90.65;101859.97;7394830;19;20044;-48
2022/07/27 01:48:59;;;;;;;6.43;2.47;;;;;;;19.24;88.32;101862.63;7392832;19;20010;-47
2022/07/27 01:51:34;;;;;;;7.25;2.22;;;;;;;19.38;87.32;101855.59;7390598;19;20018;-48
2022/07/27 01:54:12;;;;;;;5.65;2.20;;;;;;;19.14;89.22;101858.88;7394952;19;20529;-49
2022/07/27 01:56:45;;;;;;;8.90;2.20;;;;;;;19.47;86.98;101861.16;7390291;19;20124;-50
2022/07/27 01:59:17;;;;;;;5.80;2.00;;;;;;;19.34;87.04;101857.59;7389727;19;20041;-48
2022/07/27 02:01:53;;;;;;;4.40;1.52;;;;;;;19.60;85.35;101855.03;7390248;19;20015;-47
2022/07/27 02:04:30;;;;;;;5.10;2.10;;;;;;;19.74;86.01;101851.47;7390733;19;20037;-48
2022/07/27 02:06:59;;;;;;;5.55;1.77;;;;;;;19.65;83.47;101848.44;7393569;19;20019;-51
2022/07/27 02:09:31;;;;;;;8.88;2.05;;;;;;;19.63;83.70;101850.38;7392353;19;20007;-50
2022/07/27 02:14:41;;;;;;;8.98;1.80;;;;;;;19.53;85.03;101850.13;7394462;19;20045;-51
2022/07/27 02:17:10;;;;;;;4.68;1.50;;;;;;;19.61;84.50;101843.44;7392393;19;20011;-48
2022/07/27 02:19:38;;;;;;;7.70;2.05;;;;;;;19.51;85.30;101852.03;7393425;19;20033;-52
2022/07/27 02:22:07;;;;;;;4.53;1.75;;;;;;;19.57;83.67;101856.06;7393959;19;20022;-48
2022/07/27 02:24:39;;;;;;;5.95;2.03;;;;;;;19.68;84.74;101848.22;7391948;19;20015;-48
2022/07/27 02:27:08;;;;;;;6.20;1.75;;;;;;;19.59;83.71;101840.88;7400786;19;20015;-46
2022/07/27 02:29:37;;;;;;;5.68;2.05;;;;;;;19.46;85.22;101840.84;7401218;19;20372;-48
2022/07/27 02:32:06;;;;;;;5.75;1.65;;;;;;;19.44;84.45;101840.09;7400932;19;20023;-50
2022/07/27 02:34:35;;;;;;;4.10;1.73;;;;;;;19.54;86.19;101846.50;7400808;19;20487;-51
2022/07/27 02:37:04;;;;;;;6.32;1.80;;;;;;;19.27;85.74;101854.50;7398400;19;20011;-46
2022/07/27 02:39:33;;;;;;;6.53;1.90;;;;;;;19.05;88.24;101841.72;7400778;19;20022;-51
2022/07/27 02:42:05;;;;;;;4.72;1.70;;;;;;;19.33;88.64;101848.75;7400866;19;20029;-49
2022/07/27 02:44:34;;;;;;;4.72;1.48;;;;;;;19.24;87.93;101852.00;7396822;19;20348;-50
2022/07/27 02:47:03;;;;;;;5.85;1.92;;;;;;;19.10;88.96;101850.25;7399756;19;20017;-47
2022/07/27 02:49:31;;;;;;;5.15;2.00;;;;;;;18.94;89.65;101849.50;7399444;19;20021;-51
2022/07/27 02:52:01;;;;;;;5.50;1.92;;;;;;;19.17;88.56;101843.59;7397605;19;20021;-51
2022/07/27 02:54:31;;;;;;;7.55;2.13;;;;;;;19.09;88.71;101842.38;7397383;19;20021;-53
2022/07/27 02:57:03;;;;;;;14.00;7.22;;;;;;;19.24;88.07;101829.91;7399511;19;20022;-48
2022/07/27 02:59:35;;;;;;;9.32;2.15;;;;;;;19.15;88.09;101845.47;7397732;19;20014;-50
2022/07/27 03:02:03;;;;;;;5.70;2.10;;;;;;;19.19;86.95;101838.19;7400886;19;20720;-48
2022/07/27 03:04:32;;;;;;;7.47;2.13;;;;;;;19.08;88.47;101841.50;7398285;19;20018;-48
2022/07/27 03:07:01;;;;;;;5.78;2.20;;;;;;;18.90;90.28;101835.59;7400239;19;20021;-48
2022/07/27 03:09:30;;;;;;;4.80;2.03;;;;;;;19.02;89.85;101842.75;7400439;19;20017;-50
2022/07/27 03:11:59;;;;;;;6.00;2.28;;;;;;;18.92;90.24;101843.44;7401160;19;20022;-47
2022/07/27 03:14:28;;;;;;;6.30;2.20;;;;;;;18.60;92.86;101841.00;7400055;19;20648;-47
2022/07/27 03:16:59;;;;;;;5.88;2.05;;;;;;;18.52;95.37;101833.47;7398987;19;20014;-47
2022/07/27 03:19:28;;;;;;;5.18;2.05;;;;;;;18.64;93.35;101838.03;7400158;19;20021;-52
2022/07/27 03:21:57;;;;;;;7.03;2.70;;;;;;;18.85;93.60;101835.84;7397806;19;20021;-47
2022/07/27 03:24:26;;;;;;;6.78;2.35;;;;;;;18.87;95.16;101832.25;7398383;19;20011;-48
2022/07/27 03:26:55;;;;;;;8.32;2.33;;;;;;;18.95;92.83;101836.13;7399607;19;20023;-51
2022/07/27 03:29:24;;;;;;;7.78;2.45;;;;;;;18.99;92.51;101828.84;7399587;19;20038;-49
2022/07/27 03:31:52;;;;;;;8.25;2.42;;;;;;;19.10;91.20;101836.97;7398898;19;20336;-49
2022/07/27 03:34:24;;;;;;;4.65;2.17;;;;;;;19.08;90.55;101838.00;7397299;19;20491;-47
2022/07/27 03:36:53;;;;;;;6.63;2.17;;;;;;;19.27;89.81;101842.97;7396517;19;20010;-48
2022/07/27 03:39:22;;;;;;;6.20;2.42;;;;;;;19.41;88.86;101837.63;7399724;19;20015;-46
2022/07/27 03:41:50;;;;;;;5.43;2.53;;;;;;;19.27;88.45;101830.56;7396983;19;20026;-46
2022/07/27 03:44:19;;;;;;;5.47;2.38;;;;;;;18.84;92.14;101849.19;7396180;19;20025;-47
2022/07/27 03:46:48;;;;;;;7.93;2.20;;;;;;;18.92;92.34;101838.16;7400347;19;20029;-48
2022/07/27 03:49:17;;;;;;;6.53;2.30;;;;;;;19.36;90.81;101840.59;7398852;19;20020;-49
2022/07/27 03:51:48;;;;;;;3.83;2.00;;;;;;;19.60;89.54;101849.69;7395834;19;20428;-48
2022/07/27 03:54:18;;;;;;;4.18;2.08;;;;;;;19.43;87.81;101846.38;7396902;19;20038;-48
2022/07/27 03:56:47;;;;;;;5.95;1.90;;;;;;;19.24;89.46;101853.81;7394458;19;20033;-48
2022/07/27 03:59:16;;;;;;;10.75;2.20;;;;;;;19.34;87.30;101850.47;7397778;19;20359;-51
2022/07/27 04:01:45;;;;;;;8.02;2.55;;;;;;;18.92;90.26;101851.44;7398419;19;20029;-48
2022/07/27 04:04:13;;;;;;;4.10;1.98;;;;;;;19.08;90.00;101852.13;7398662;19;20018;-50
2022/07/27 04:06:42;;;;;;;4.15;2.05;;;;;;;19.01;90.32;101851.69;7395073;19;20010;-47
2022/07/27 04:09:15;;;;;;;7.88;2.22;;;;;;;18.85;92.18;101850.91;7397262;19;20010;-51
2022/07/27 04:11:45;;;;;;;9.80;2.10;;;;;;;18.76;92.77;101851.50;7395289;19;20049;-51
2022/07/27 04:14:15;;;;;;;8.57;3.58;;;;;;;18.53;94.61;101853.78;7399200;19;20022;-47
2022/07/27 04:16:44;;;;;;;4.47;2.20;;;;;;;18.53;95.48;101859.09;7393839;19;20029;-47
2022/07/27 04:19:16;;;;;;;7.43;2.58;;;;;;;18.66;93.91;101857.38;7394404;19;20025;-49
2022/07/27 04:21:45;;;;;;;6.60;2.08;;;;;;;18.37;96.87;101863.59;7394091;19;20015;-51
2022/07/27 04:24:16;;;;;;;6.60;1.70;;;;;;;18.57;95.04;101860.59;7394823;19;20015;-46
2022/07/27 04:26:45;;;;;;;5.43;2.00;;;;;;;18.44;95.86;101860.50;7394150;19;20019;-50
2022/07/27 04:29:14;;;;;;;6.43;2.33;;;;;;;18.43;97.26;101873.88;7396276;19;20015;-50
2022/07/27 04:31:43;;;;;;;8.75;2.15;;;;;;;18.62;96.57;101874.44;7396644;19;20654;-51
2022/07/27 04:34:12;;;;;;;6.40;2.05;;;;;;;18.53;95.93;101864.41;7397767;19;20499;-50
2022/07/27 04:36:41;;;;;;;6.53;2.40;;;;;;;18.68;94.88;101873.19;7393717;19;20021;-50
2022/07/27 04:39:10;;;;;;;5.93;2.30;;;;;;;18.27;97.62;101869.47;7397422;19;20021;-49
2022/07/27 04:41:41;;;;;;;5.55;2.30;;;;;;;18.48;96.25;101879.75;7393642;19;20026;-50
2022/07/27 04:44:10;;;;;;;8.18;2.50;;;;;;;18.80;93.85;101875.09;7397524;19;20006;-51
2022/07/27 04:46:39;;;;;;;4.90;1.90;;;;;;;19.05;92.92;101880.72;7391599;19;20017;-49
2022/07/27 04:49:08;;;;;;;4.60;1.98;;;;;;;19.14;91.55;101877.47;7396036;19;20373;-48
2022/07/27 04:51:37;;;;;;;8.85;2.10;;;;;;;19.10;91.54;101868.84;7393898;19;20053;-52
2022/07/27 04:54:06;;;;;;;3.60;1.98;;;;;;;18.92;91.91;101873.50;7392976;19;20014;-49
2022/07/27 04:56:35;;;;;;;7.10;2.67;;;;;;;18.86;92.66;101876.53;7393161;19;20029;-47
2022/07/27 04:59:06;;;;;;;9.43;2.00;;;;;;;19.10;92.49;101890.09;7394620;19;20490;-50
2022/07/27 05:01:35;;;;;;;4.03;1.60;;;;;;;19.27;92.65;101896.13;7394990;19;20022;-51
2022/07/27 05:04:05;;;;;;;6.25;1.90;;;;;;;19.44;91.64;101897.72;7397217;19;20399;-47
2022/07/27 05:06:34;;;;;;;5.55;1.90;;;;;;;19.60;89.72;101900.22;7395894;19;20034;-49
2022/07/27 05:09:03;;;;;;;4.82;2.53;;;;;;;19.59;88.94;101899.38;7394083;19;20026;-46
2022/07/27 05:11:32;;;;;;;6.38;1.90;;;;;;;19.68;88.73;101900.59;7395356;19;20014;-47
2022/07/27 05:14:01;;;;;;;6.43;1.98;;;;;;;19.75;88.66;101907.19;7394194;19;20010;-51
2022/07/27 05:16:32;;;;;;;6.40;2.40;;;;;;;19.79;90.13;101903.41;7392929;19;20022;-53
2022/07/27 05:19:01;;;;;;;4.28;2.05;;;;;;;19.80;90.09;101907.78;7392788;19;20011;-46
2022/07/27 05:21:30;;;;;;;5.47;2.22;;;;;;;19.87;89.97;101909.09;7392813;19;20422;-46
2022/07/27 05:23:59;;;;;;;4.47;2.13;;;;;;;19.85;90.74;101907.47;7393811;19;20021;-47
2022/07/27 05:26:28;;;;;;;4.72;2.35;;;;;;;19.80;91.58;101912.25;7392059;19;20026;-50
2022/07/27 05:28:57;;;;;;;6.13;2.58;;;;;;;19.75;92.12;101914.34;7393699;19;20010;-47
2022/07/27 05:31:25;;;;;;;4.70;2.17;;;;;;;19.65;92.47;101920.25;7392096;19;20014;-48
2022/07/27 05:33:57;;;;;;;4.80;2.20;;;;;;;19.69;93.50;101918.25;7395301;19;20490;-55
2022/07/27 05:36:26;;;;;;;5.55;2.25;;;;;;;19.75;93.66;101922.31;7395935;19;20029;-53
2022/07/27 05:38:55;;;;;;;6.20;1.95;;;;;;;19.81;93.12;101916.63;7391436;19;20491;-49
2022/07/27 05:41:25;;;;;;;4.20;1.85;;;;;;;19.81;92.58;101932.56;7391670;19;20018;-49
2022/07/27 05:43:55;;;;;;;2.92;1.90;;;;;;;19.89;92.86;101932.94;7396540;19;20006;-48
2022/07/27 05:46:25;;;;;;;6.70;1.77;;;;;;;19.90;92.29;101937.28;7391729;19;20054;-50
2022/07/27 05:48:56;;;;;;;2.60;1.58;;;;;;;19.85;93.27;101947.38;7392550;19;20015;-48
2022/07/27 05:51:25;;;;;;;5.72;1.65;;;;;;;19.87;93.11;101949.00;7391954;19;20034;-47
2022/07/27 05:53:54;;;;;;;3.45;1.50;;;;;;;19.91;93.02;101940.81;7395905;19;20011;-47
2022/07/27 05:56:23;;;;;;;3.13;1.50;;;;;;;19.88;93.95;101944.50;7395884;19;20007;-48
2022/07/27 05:58:52;;;;;;;3.28;1.30;;;;;;;19.92;93.06;101937.19;7392116;19;20088;-49
2022/07/27 06:01:21;;;;;;;3.20;1.73;;;;;;;19.90;93.01;101937.28;7392406;19;20111;-50
2022/07/27 06:03:50;;;;;;;3.15;1.30;;;;;;;19.95;93.71;101942.31;7393800;19;20013;-45
2022/07/27 06:09:04;;;;;;;3.50;1.42;;;;;;;20.07;91.89;101941.47;7389869;19;20479;-49
2022/07/27 06:11:33;;;;;;;3.53;1.58;;;;;;;20.16;92.28;101943.53;7392073;19;20014;-45
2022/07/27 06:14:02;;;;;;;3.58;1.50;;;;;;;20.22;92.11;101935.13;7391350;19;20452;-48
2022/07/27 06:16:31;;;;;;;6.25;2.00;;;;;;;20.21;91.40;101940.56;7391032;19;20012;-47
2022/07/27 06:18:59;;;;;;;2.40;1.38;;;;;;;20.23;91.68;101941.28;7391947;19;20018;-48
2022/07/27 06:21:31;;;;;;;4.88;1.13;;;;;;;20.15;91.86;101933.84;7390511;19;20018;-46
2022/07/27 06:24:00;;;;;;;4.00;1.25;;;;;;;20.18;89.70;101927.47;7394856;19;20011;-50
2022/07/27 06:26:29;;;;;;;3.53;1.10;;;;;;;20.27;89.81;101929.50;7392513;19;20015;-46
2022/07/27 06:29:00;;;;;;;4.20;1.42;;;;;;;20.28;89.38;101935.69;7390329;19;20014;-50
2022/07/27 06:31:29;;;;;;;2.08;1.30;;;;;;;20.32;90.13;101931.88;7390761;19;20014;-47
2022/07/27 06:33:58;;;;;;;2.80;1.35;;;;;;;20.39;89.67;101935.81;7390482;19;20017;-47
2022/07/27 06:36:27;;;;;;;3.03;1.52;;;;;;;20.46;88.34;101928.25;7390294;19;20605;-48
2022/07/27 06:38:59;;;;;;;4.10;1.23;;;;;;;20.54;87.16;101936.56;7391400;19;20015;-48
2022/07/27 06:41:29;;;;;;;7.20;1.30;;;;;;;20.60;86.51;101935.28;7391374;19;20026;-50
2022/07/27 06:43:57;;;;;;;2.70;1.20;;;;;;;20.56;86.19;101937.28;7391988;19;20021;-51
2022/07/27 06:46:26;;;;;;;2.72;1.00;;;;;;;20.57;86.39;101933.69;7392193;19;20366;-51
2022/07/27 06:48:55;;;;;;;2.80;1.17;;;;;;;20.61;86.73;101943.16;7390038;19;20018;-46
2022/07/27 06:51:24;;;;;;;2.58;1.00;;;;;;;20.56;83.56;101940.81;7389955;19;20003;-48
2022/07/27 06:53:54;;;;;;;5.68;1.00;;;;;;;20.62;84.67;101952.00;7388713;19;20602;-49
2022/07/27 06:56:26;;;;;;;4.50;1.63;;;;;;;20.62;84.00;101952.88;7389020;19;20115;-46
2022/07/27 06:58:55;;;;;;;2.33;1.10;;;;;;;20.63;82.83;101937.72;7390399;19;20025;-49
2022/07/27 07:01:24;;;;;;;3.15;0.90;;;;;;;20.67;82.90;101945.44;7390047;19;20010;-46
2022/07/27 07:03:54;;;;;;;5.63;1.27;;;;;;;20.70;83.20;101947.03;7391554;19;20340;-49
2022/07/27 07:06:23;;;;;;;4.15;1.20;;;;;;;20.81;85.23;101957.78;7390094;19;20018;-46
2022/07/27 07:08:52;;;;;;;5.20;1.20;;;;;;;20.82;82.15;101955.97;7390543;19;20400;-48
2022/07/27 07:11:21;;;;;;;3.60;1.48;;;;;;;20.81;82.04;101956.97;7397130;19;20010;-50
2022/07/27 07:13:53;;;;;;;3.50;1.30;;;;;;;20.85;82.27;101959.28;7398048;19;20418;-46
2022/07/27 07:16:22;;;;;;;4.13;1.60;;;;;;;20.87;83.59;101964.50;7398224;19;20489;-45
2022/07/27 07:18:51;;;;;;;2.92;1.30;;;;;;;20.94;84.62;101963.13;7397151;19;20033;-45
2022/07/27 07:21:20;;;;;;;4.22;1.50;;;;;;;20.98;83.55;101958.44;7400346;19;20014;-45
2022/07/27 07:23:49;;;;;;;4.32;1.30;;;;;;;20.95;79.44;101971.94;7397260;19;20486;-46
2022/07/27 07:26:17;;;;;;;3.53;1.30;;;;;;;21.05;81.43;101962.38;7396322;19;20025;-46
2022/07/27 07:28:46;;;;;;;5.47;1.40;;;;;;;21.06;80.70;101959.59;7397051;19;20015;-49
2022/07/27 07:31:19;;;;;;;2.33;1.20;;;;;;;21.07;81.33;101971.09;7398456;19;20033;-49
2022/07/27 07:33:48;;;;;;;5.05;1.85;;;;;;;21.08;81.66;101967.50;7395944;19;20232;-47
2022/07/27 07:36:17;;;;;;;4.63;1.30;;;;;;;21.12;80.26;101968.09;7396829;19;20015;-46
2022/07/27 07:38:46;;;;;;;3.72;1.10;;;;;;;21.16;79.73;101969.59;7397304;19;20483;-50
2022/07/27 07:41:15;;;;;;;4.57;1.42;;;;;;;21.35;79.12;101970.00;7395653;19;20014;-46
2022/07/27 07:43:44;;;;;;;8.27;1.92;;;;;;;21.41;75.56;101974.88;7400665;19;20025;-50
2022/07/27 07:46:13;;;;;;;4.00;1.35;;;;;;;20.46;74.97;101974.38;7397800;19;20018;-50
2022/07/27 07:48:44;;;;;;;4.40;1.48;;;;;;;20.35;77.21;101969.75;7395556;19;20018;-48
2022/07/27 07:51:14;;;;;;;4.78;1.55;;;;;;;20.16;79.03;101974.59;7396340;19;20003;-44
2022/07/27 07:53:42;;;;;;;3.05;1.20;;;;;;;20.82;77.60;101971.97;7399472;19;20020;-51
2022/07/27 07:56:13;;;;;;;5.53;1.20;;;;;;;21.05;77.86;101973.03;7395856;19;20027;-47
2022/07/27 07:58:42;;;;;;;6.13;1.25;;;;;;;21.23;76.99;101978.88;7396570;19;20018;-46
2022/07/27 08:01:11;;;;;;;6.43;1.40;;;;;;;21.41;73.49;101976.72;7396654;19;20014;-46
2022/07/27 08:03:40;;;;;;;4.20;1.13;;;;;;;21.57;74.64;101971.97;7399565;19;20021;-49
2022/07/27 08:06:11;;;;;;;4.35;1.50;;;;;;;21.69;73.21;101970.25;7399156;19;20029;-50
2022/07/27 08:08:40;;;;;;;4.25;1.27;;;;;;;21.90;68.51;101981.13;7394201;19;20010;-53
2022/07/27 08:11:09;;;;;;;4.78;1.40;;;;;;;21.99;68.93;101976.94;7394813;19;20017;-50
2022/07/27 08:13:38;;;;;;;3.28;1.40;;;;;;;22.15;65.61;101984.66;7399241;19;20010;-46
2022/07/27 08:16:07;;;;;;;5.43;1.23;;;;;;;22.22;67.46;101980.56;7394502;19;20019;-47
2022/07/27 08:18:36;;;;;;;6.25;1.35;;;;;;;22.29;67.34;101988.94;7395696;19;20019;-48
2022/07/27 08:21:05;;;;;;;4.55;1.25;;;;;;;22.18;64.27;101989.78;7397685;19;20014;-49
2022/07/27 08:23:37;;;;;;;4.03;1.20;;;;;;;21.82;59.71;101991.56;7397585;19;20003;-46
2022/07/27 08:26:06;;;;;;;4.20;1.20;;;;;;;21.95;59.91;101986.16;7394882;19;20015;-46
2022/07/27 08:28:34;;;;;;;6.88;1.58;;;;;;;22.02;61.69;101992.75;7395682;19;20019;-49
2022/07/27 08:31:03;;;;;;;4.55;1.20;;;;;;;22.18;61.04;101996.91;7395805;19;20018;-50
2022/07/27 08:33:32;;;;;;;4.25;1.42;;;;;;;22.39;58.08;101981.13;7398743;19;20475;-51
2022/07/27 08:36:01;;;;;;;4.88;1.05;;;;;;;22.48;58.51;101988.47;7394989;19;20511;-47
2022/07/27 08:38:30;;;;;;;8.05;1.40;;;;;;;22.44;58.69;101990.50;7395468;19;20026;-47
2022/07/27 08:41:04;;;;;;;3.40;1.52;;;;;;;22.36;56.81;101982.22;7394559;19;20444;-49
2022/07/27 08:43:33;;;;;;;5.55;1.25;;;;;;;21.84;55.98;101989.63;7398209;19;20015;-51
2022/07/27 08:46:03;;;;;;;3.58;1.20;;;;;;;22.27;57.53;101989.06;7393693;19;20014;-54
2022/07/27 08:48:32;;;;;;;5.15;1.10;;;;;;;22.59;56.85;101980.44;7395533;19;20014;-49
2022/07/27 08:51:01;;;;;;;6.15;1.15;;;;;;;22.54;58.16;101979.97;7398014;19;20029;-51
2022/07/27 08:53:33;;;;;;;5.43;1.80;;;;;;;22.94;56.00;101979.53;7397896;19;20018;-50
2022/07/27 08:56:04;;;;;;;3.97;1.17;;;;;;;23.11;53.38;101980.03;7393838;19;20022;-49
2022/07/27 08:58:33;;;;;;;4.45;1.17;;;;;;;23.15;52.04;101977.03;7394898;19;20022;-50
2022/07/27 09:01:02;;;;;;;7.95;1.73;;;;;;;23.26;54.18;101975.31;7395587;19;20446;-47
2022/07/27 09:03:31;;;;;;;4.65;1.60;;;;;;;22.66;52.07;101980.84;7397216;19;20030;-48
2022/07/27 09:06:00;;;;;;;4.57;1.33;;;;;;;22.59;55.51;101983.13;7396761;19;20011;-49
2022/07/27 09:08:30;;;;;;;2.80;1.30;;;;;;;21.92;54.54;101983.69;7394580;19;20026;-47
2022/07/27 09:11:02;;;;;;;6.50;1.30;;;;;;;21.83;57.39;101974.56;7392742;19;20014;-48
2022/07/27 09:13:35;;;;;;;3.28;1.25;;;;;;;22.01;52.75;101982.16;7396075;19;20340;-47
2022/07/27 09:16:05;;;;;;;5.32;1.42;;;;;;;21.86;53.37;101973.47;7393743;19;20014;-46
2022/07/27 09:18:36;;;;;;;4.68;1.83;;;;;;;22.13;54.07;101962.56;7390987;19;20487;-50
2022/07/27 09:21:13;;;;;;;3.55;1.08;;;;;;;22.62;54.57;101966.00;7392598;19;20025;-50
2022/07/27 09:23:43;;;;;;;4.75;1.15;;;;;;;22.96;53.90;101963.38;7396179;19;20033;-48
2022/07/27 09:26:14;;;;;;;7.35;1.23;;;;;;;22.97;50.80;101960.56;7393159;19;20078;-49
2022/07/27 09:28:46;;;;;;;6.25;1.20;;;;;;;23.05;48.83;101962.63;7393598;19;20018;-49
2022/07/27 09:31:17;;;;;;;3.58;1.00;;;;;;;23.17;49.48;101960.84;7392197;19;20011;-50
2022/07/27 09:33:48;;;;;;;5.45;1.63;;;;;;;23.00;48.14;101962.16;7395942;19;20010;-51
2022/07/27 09:36:19;;;;;;;6.82;2.05;;;;;;;23.20;49.35;101968.63;7393964;19;20743;-47
2022/07/27 09:38:55;;;;;;;4.78;1.83;;;;;;;22.73;48.35;101966.03;7392693;19;20025;-47
2022/07/27 09:41:25;;;;;;;5.30;1.35;;;;;;;22.87;49.78;101964.09;7393141;19;20448;-46
2022/07/27 09:43:57;;;;;;;4.63;1.17;;;;;;;22.39;49.43;101962.44;7397211;19;20010;-48
2022/07/27 09:46:30;;;;;;;;;;;;;;;22.78;48.16;101969.19;7392994;19;20014;-46
2022/07/27 09:49:00;;;;;;;4.30;1.17;;;;;;;22.86;47.63;101970.41;7391979;19;19956;-45
2022/07/27 09:51:30;;;;;;;4.25;1.50;;;;;;;22.40;48.01;101973.00;7391176;19;20376;-48
2022/07/27 09:54:01;;;;;;;4.75;1.52;;;;;;;22.68;48.62;101973.56;7393037;19;20038;-46
2022/07/27 09:56:32;;;;;;;7.07;1.33;;;;;;;22.60;52.25;101970.63;7392055;19;20010;-47
2022/07/27 09:59:05;;;;;;;5.30;1.50;;;;;;;22.73;50.11;101976.72;7391624;19;20056;-48
2022/07/27 10:01:39;;;;;;;5.90;2.10;;;;;;;22.68;51.18;101978.91;7393231;19;20021;-50
2022/07/27 10:04:09;;;;;;;5.32;1.30;;;;;;;22.76;49.56;101980.97;7391264;19;20142;-51
2022/07/27 10:06:38;;;;;;;5.95;1.35;;;;;;;22.17;52.11;101995.22;7391737;19;20095;-52
2022/07/27 10:09:09;;;;;;;3.80;1.30;;;;;;;22.79;51.97;101986.06;7390708;19;20114;-47
2022/07/27 10:11:39;;;;;;;3.30;1.30;;;;;;;22.90;51.23;101987.91;7393695;19;20015;-47
2022/07/27 10:14:10;;;;;;;9.57;1.98;;;;;;;22.96;48.91;101992.78;7393678;19;20011;-51
2022/07/27 10:16:40;;;;;;;5.72;1.77;;;;;;;22.41;50.45;101992.56;7393642;19;20018;-48
2022/07/27 10:19:15;;;;;;;6.25;1.50;;;;;;;22.73;51.20;101998.09;7394726;19;20034;-49
2022/07/27 10:21:47;;;;;;;6.85;1.38;;;;;;;22.21;50.72;102000.22;7390984;19;20050;-49
2022/07/27 10:24:27;;;;;;;3.70;1.30;;;;;;;22.35;53.27;101983.19;7391341;19;20070;-48
2022/07/27 10:26:57;;;;;;;5.68;1.40;;;;;;;22.87;51.84;101991.69;7394533;19;20389;-49
2022/07/27 10:29:28;;;;;;;6.13;1.90;;;;;;;22.73;48.67;101989.22;7394781;19;20015;-47
2022/07/27 10:31:59;;;;;;;3.90;1.40;;;;;;;22.54;47.91;101992.44;7391520;19;20025;-48
2022/07/27 10:34:37;;;;;;;3.10;1.55;;;;;;;22.43;47.67;101983.44;7392638;19;20010;-51
2022/07/27 10:37:13;;;;;;;5.05;1.73;;;;;;;22.57;47.95;101979.72;7391880;19;20019;-47
2022/07/27 10:39:45;;;;;;;4.43;1.75;;;;;;;22.75;47.45;101972.13;7389281;19;20086;-47
2022/07/27 10:42:23;;;;;;;8.35;1.52;;;;;;;22.49;47.57;101966.09;7393420;19;20070;-47
2022/07/27 10:45:11;;;;;;;5.72;1.40;;;;;;;22.73;47.84;101959.84;7392560;19;20033;-47
2022/07/27 10:47:43;;;;;;;5.82;1.20;;;;;;;23.31;48.18;101965.06;7399411;19;20018;-48
2022/07/27 10:50:28;;;;;;;6.07;1.73;;;;;;;23.68;49.69;101962.09;7399951;19;20018;-46
2022/07/27 10:52:59;;;;;;;4.90;1.50;;;;;;;23.40;49.14;101958.16;7401302;19;20007;-45
2022/07/27 10:55:47;;;;;;;5.03;1.42;;;;;;;23.68;47.92;101967.44;7398392;19;20475;-46
2022/07/27 10:58:46;;;;;;;5.30;1.40;;;;;;;23.93;47.16;101970.81;7398494;19;20026;-51
2022/07/27 11:01:20;;;;;;;4.63;1.40;;;;;;;23.86;44.53;101965.09;7398764;19;20053;-46
2022/07/27 11:03:56;;;;;;;5.22;1.30;;;;;;;23.87;44.43;101966.81;7402009;19;20037;-47
2022/07/27 11:06:30;;;;;;;3.25;1.20;;;;;;;24.11;45.18;101963.06;7401443;19;20010;-48
2022/07/27 11:09:01;;;;;;;3.20;1.30;;;;;;;24.28;44.55;101951.78;7393228;19;20019;-48
2022/07/27 11:11:33;;;;;;;6.00;1.10;;;;;;;24.52;46.28;101954.19;7398705;19;20018;-47
2022/07/27 11:14:02;;;;;;;3.55;1.00;;;;;;;24.81;42.46;101952.69;7401218;19;20018;-51
2022/07/27 11:16:34;;;;;;;3.88;1.38;;;;;;;24.23;41.43;101951.34;7398777;19;20056;-49
2022/07/27 11:19:06;;;;;;;4.17;1.13;;;;;;;24.48;44.83;101944.72;7395732;19;20018;-48
2022/07/27 11:21:37;;;;;;;6.50;1.15;;;;;;;25.16;43.17;101946.91;7398355;19;20463;-49
2022/07/27 11:24:12;;;;;;;6.38;1.10;;;;;;;25.15;40.95;101945.19;7400675;19;20042;-50
2022/07/27 11:26:43;;;;;;;4.30;1.40;;;;;;;25.20;41.67;101940.28;7397331;19;20164;-48
2022/07/27 11:29:14;;;;;;;2.53;1.00;;;;;;;24.85;39.71;101936.19;7399897;19;20023;-50
2022/07/27 11:31:50;;;;;;;11.15;1.67;;;;;;;24.36;42.42;101932.38;7396890;19;20018;-48
2022/07/27 11:34:27;;;;;;;4.53;1.25;;;;;;;24.59;43.62;101941.13;7399927;19;20014;-46
2022/07/27 11:36:57;;;;;;;4.10;1.30;;;;;;;24.63;43.49;101933.69;7397073;19;20023;-48
2022/07/27 11:39:27;;;;;;;4.70;1.33;;;;;;;24.68;44.45;101937.66;7396239;19;20070;-46
2022/07/27 11:41:58;;;;;;;3.67;1.10;;;;;;;24.61;44.20;101933.81;7397302;19;20371;-46
2022/07/27 11:44:27;;;;;;;4.82;2.00;;;;;;;24.26;42.35;101945.72;7396239;19;20015;-47
2022/07/27 11:46:59;;;;;;;5.43;1.20;;;;;;;24.42;42.59;101942.56;7399749;19;20006;-47
2022/07/27 11:49:30;;;;;;;6.68;1.63;;;;;;;24.42;40.82;101936.38;7399864;19;20022;-47
2022/07/27 11:52:00;;;;;;;11.95;5.63;;;;;;;24.50;41.95;101936.53;7396605;19;20026;-48